createdAt,value
2022-09-12T00:01:43.710Z,16.90
2022-09-12T00:03:48.123Z,16.93
2022-09-12T00:05:51.673Z,16.98
2022-09-12T00:07:55.284Z,17.04
2022-09-12T00:09:58.751Z,17.07
2022-09-12T00:12:02.259Z,17.05
2022-09-12T00:14:07.069Z,16.91
2022-09-12T00:16:18.210Z,16.98
2022-09-12T00:18:21.579Z,16.93
2022-09-12T00:20:26.681Z,16.92
2022-09-12T00:22:30.078Z,16.84
2022-09-12T00:24:33.984Z,16.85
2022-09-12T00:26:37.649Z,16.86
2022-09-12T00:28:42.772Z,16.89
2022-09-12T00:30:48.897Z,16.96
2022-09-12T00:32:54.715Z,16.99
2022-09-12T00:34:58.160Z,16.97
2022-09-12T00:37:02.027Z,16.99
2022-09-12T00:39:06.436Z,16.97
2022-09-12T00:41:16.259Z,16.89
2022-09-12T00:43:37.040Z,17.01
2022-09-12T00:45:42.425Z,16.80
2022-09-12T00:47:45.849Z,16.89
2022-09-12T00:49:55.931Z,16.89
2022-09-12T00:52:04.308Z,16.91
2022-09-12T00:54:13.667Z,16.98
2022-09-12T00:56:19.316Z,16.87
2022-09-12T00:58:26.235Z,16.94
2022-09-12T01:00:30.525Z,16.91
2022-09-12T01:02:35.374Z,16.94
2022-09-12T01:04:42.589Z,16.90
2022-09-12T01:06:48.592Z,16.82
2022-09-12T01:08:53.748Z,16.51
2022-09-12T01:10:58.547Z,16.69
2022-09-12T01:13:02.464Z,16.68
2022-09-12T01:15:07.132Z,16.42
2022-09-12T01:17:13.949Z,16.13
2022-09-12T01:19:45.390Z,16.06
2022-09-12T01:22:06.500Z,16.11
2022-09-12T01:24:40.107Z,16.26
2022-09-12T01:27:14.032Z,16.08
2022-09-12T01:29:31.502Z,16.31
2022-09-12T01:31:42.214Z,16.20
2022-09-12T01:34:01.266Z,16.20
2022-09-12T01:36:25.785Z,16.25
2022-09-12T01:38:37.779Z,16.04
2022-09-12T01:40:46.721Z,16.05
2022-09-12T01:42:58.903Z,15.99
2022-09-12T01:45:09.071Z,15.90
2022-09-12T01:47:50.000Z,15.89
2022-09-12T01:50:01.348Z,15.80
2022-09-12T01:52:13.462Z,15.80
2022-09-12T01:54:23.096Z,15.87
2022-09-12T01:56:28.651Z,15.98
2022-09-12T01:58:41.346Z,15.95
2022-09-12T02:00:52.030Z,16.02
2022-09-12T02:03:02.280Z,16.06
2022-09-12T02:05:10.507Z,15.91
2022-09-12T02:07:19.257Z,16.14
2022-09-12T02:09:26.834Z,16.13
2022-09-12T02:11:35.231Z,16.06
2022-09-12T02:13:43.266Z,16.10
2022-09-12T02:15:53.514Z,16.02
2022-09-12T02:18:02.540Z,16.09
2022-09-12T02:20:17.757Z,16.17
2022-09-12T02:22:38.320Z,16.10
2022-09-12T02:24:47.013Z,16.10
2022-09-12T02:26:55.752Z,16.11
2022-09-12T02:28:59.283Z,15.99
2022-09-12T02:31:14.672Z,15.99
2022-09-12T02:33:26.697Z,16.04
2022-09-12T02:35:40.208Z,16.07
2022-09-12T02:37:55.997Z,16.12
2022-09-12T02:40:00.818Z,15.99
2022-09-12T02:42:05.666Z,16.03
2022-09-12T02:44:09.006Z,16.02
2022-09-12T02:46:18.962Z,16.00
2022-09-12T02:48:28.602Z,16.03
2022-09-12T02:50:33.159Z,15.91
2022-09-12T02:52:36.886Z,15.82
2022-09-12T02:54:40.780Z,15.81
2022-09-12T02:56:46.075Z,15.82
2022-09-12T02:58:49.980Z,15.77
2022-09-12T03:01:01.867Z,15.73
2022-09-12T03:03:30.949Z,15.72
2022-09-12T03:05:38.891Z,15.73
2022-09-12T03:08:05.890Z,15.79
2022-09-12T03:10:21.108Z,15.64
2022-09-12T03:12:41.801Z,15.77
2022-09-12T03:15:02.001Z,15.73
2022-09-12T03:17:16.224Z,15.58
2022-09-12T03:19:28.130Z,15.63
2022-09-12T03:21:38.187Z,15.54
2022-09-12T03:23:47.013Z,15.68
2022-09-12T03:25:55.574Z,15.74
2022-09-12T03:28:06.114Z,15.70
2022-09-12T03:30:10.930Z,15.54
2022-09-12T03:32:15.748Z,15.60
2022-09-12T03:34:19.599Z,15.65
2022-09-12T03:36:27.220Z,15.69
2022-09-12T03:38:30.590Z,15.67
2022-09-12T03:40:33.965Z,15.73
2022-09-12T03:42:37.263Z,15.79
2022-09-12T03:44:40.559Z,15.68
2022-09-12T03:46:44.684Z,15.64
2022-09-12T03:48:48.139Z,15.75
2022-09-12T03:50:51.486Z,15.75
2022-09-12T03:52:59.541Z,15.65
2022-09-12T03:55:03.404Z,15.67
2022-09-12T03:57:07.029Z,15.56
2022-09-12T03:59:10.395Z,15.60
2022-09-12T04:01:16.246Z,15.60
2022-09-12T04:03:19.891Z,15.58
2022-09-12T04:05:24.002Z,15.48
2022-09-12T04:07:27.628Z,15.54
2022-09-12T04:09:32.345Z,15.59
2022-09-12T04:11:36.750Z,15.58
2022-09-12T04:13:41.488Z,15.46
2022-09-12T04:15:59.976Z,15.39
2022-09-12T04:18:08.989Z,15.43
2022-09-12T04:20:18.146Z,15.38
2022-09-12T04:22:21.456Z,15.33
2022-09-12T04:24:25.844Z,15.34
2022-09-12T04:26:31.754Z,15.21
2022-09-12T04:28:37.189Z,15.27
2022-09-12T04:30:40.602Z,15.23
2022-09-12T04:32:46.034Z,15.21
2022-09-12T04:34:49.459Z,15.25
2022-09-12T04:36:53.055Z,15.31
2022-09-12T04:38:56.951Z,15.35
2022-09-12T04:41:00.292Z,15.24
2022-09-12T04:43:06.117Z,15.38
2022-09-12T04:45:10.169Z,15.36
2022-09-12T04:47:13.539Z,15.41
2022-09-12T04:49:19.250Z,15.35
2022-09-12T04:51:25.960Z,15.24
2022-09-12T04:53:33.626Z,15.26
2022-09-12T04:55:37.148Z,15.27
2022-09-12T04:57:41.315Z,15.31
2022-09-12T04:59:46.034Z,15.38
2022-09-12T05:01:49.584Z,15.34
2022-09-12T05:03:53.434Z,15.33
2022-09-12T05:05:56.867Z,15.34
2022-09-12T05:08:01.143Z,15.33
2022-09-12T05:10:05.254Z,15.38
2022-09-12T05:12:09.419Z,15.33
2022-09-12T05:14:13.734Z,15.31
2022-09-12T05:16:20.014Z,15.27
2022-09-12T05:18:23.571Z,15.24
2022-09-12T05:20:26.995Z,15.21
2022-09-12T05:22:30.287Z,15.23
2022-09-12T05:24:33.916Z,15.27
2022-09-12T05:26:37.218Z,15.24
2022-09-12T05:28:41.419Z,15.26
2022-09-12T05:30:44.882Z,15.25
2022-09-12T05:32:49.681Z,15.30
2022-09-12T05:34:54.255Z,15.30
2022-09-12T05:36:59.410Z,15.34
2022-09-12T05:39:03.738Z,15.39
2022-09-12T05:41:12.396Z,15.35
2022-09-12T05:43:20.316Z,15.41
2022-09-12T05:45:23.853Z,15.52
2022-09-12T05:47:27.866Z,15.48
2022-09-12T05:49:32.608Z,15.49
2022-09-12T05:51:38.440Z,15.50
2022-09-12T05:53:42.708Z,15.39
2022-09-12T05:55:46.053Z,15.34
2022-09-12T05:57:49.627Z,15.54
2022-09-12T05:59:52.994Z,15.52
2022-09-12T06:01:56.531Z,15.53
2022-09-12T06:04:01.745Z,15.48
2022-09-12T06:06:07.907Z,15.49
2022-09-12T06:08:11.250Z,15.47
2022-09-12T06:10:15.998Z,15.39
2022-09-12T06:12:20.013Z,15.41
2022-09-12T06:14:23.395Z,15.45
2022-09-12T06:16:29.545Z,15.40
2022-09-12T06:18:33.237Z,15.46
2022-09-12T06:20:37.200Z,15.61
2022-09-12T06:22:42.397Z,15.64
2022-09-12T06:24:46.839Z,15.68
2022-09-12T06:26:52.583Z,15.79
2022-09-12T06:28:57.806Z,16.12
2022-09-12T06:31:05.788Z,16.21
2022-09-12T06:33:09.163Z,16.12
2022-09-12T06:35:13.723Z,16.21
2022-09-12T06:37:17.287Z,16.14
2022-09-12T06:39:23.836Z,15.91
2022-09-12T06:41:27.628Z,16.03
2022-09-12T06:43:32.419Z,16.04
2022-09-12T06:45:36.163Z,16.10
2022-09-12T06:47:40.524Z,16.19
2022-09-12T06:49:44.082Z,16.28
2022-09-12T06:51:47.650Z,16.33
2022-09-12T06:53:52.338Z,16.26
2022-09-12T06:56:01.172Z,16.11
2022-09-12T06:58:05.488Z,16.16
2022-09-12T07:00:10.371Z,16.07
2022-09-12T07:02:13.788Z,16.17
2022-09-12T07:04:17.150Z,16.21
2022-09-12T07:06:24.071Z,16.40
2022-09-12T07:08:28.677Z,16.56
2022-09-12T07:10:32.108Z,16.47
2022-09-12T07:12:37.071Z,16.45
2022-09-12T07:14:40.361Z,16.53
2022-09-12T07:16:45.160Z,16.50
2022-09-12T07:18:52.066Z,16.56
2022-09-12T07:20:55.586Z,16.63
2022-09-12T07:22:59.613Z,16.54
2022-09-12T07:25:03.114Z,16.78
2022-09-12T07:27:07.013Z,16.68
2022-09-12T07:29:35.794Z,16.78
2022-09-12T07:31:40.708Z,16.87
2022-09-12T07:33:45.115Z,16.89
2022-09-12T07:35:49.579Z,16.91
2022-09-12T07:37:52.998Z,16.91
2022-09-12T07:39:57.519Z,16.85
2022-09-12T07:42:01.430Z,16.87
2022-09-12T07:44:06.635Z,17.00
2022-09-12T07:46:12.241Z,16.97
2022-09-12T07:48:17.387Z,16.98
2022-09-12T07:50:20.728Z,17.09
2022-09-12T07:52:24.396Z,17.07
2022-09-12T07:54:27.868Z,17.07
2022-09-12T07:56:34.626Z,17.13
2022-09-12T07:58:42.196Z,17.14
2022-09-12T08:00:45.938Z,17.19
2022-09-12T08:02:54.030Z,17.28
2022-09-12T08:04:57.424Z,17.32
2022-09-12T08:07:00.857Z,17.29
2022-09-12T08:09:05.237Z,17.33
2022-09-12T08:11:10.936Z,17.44
2022-09-12T08:13:14.567Z,17.48
2022-09-12T08:15:18.121Z,17.40
2022-09-12T08:17:21.965Z,17.32
2022-09-12T08:19:26.692Z,17.51
2022-09-12T08:21:31.895Z,17.46
2022-09-12T08:23:35.811Z,17.47
2022-09-12T08:25:39.185Z,17.54
2022-09-12T08:27:43.995Z,17.64
2022-09-12T08:29:47.329Z,17.70
2022-09-12T08:31:55.151Z,17.66
2022-09-12T08:34:24.763Z,17.62
2022-09-12T08:36:30.238Z,17.70
2022-09-12T08:38:33.651Z,17.83
2022-09-12T08:40:48.898Z,17.85
2022-09-12T08:43:00.209Z,18.02
2022-09-12T08:45:15.920Z,18.06
2022-09-12T08:47:24.753Z,18.13
2022-09-12T08:49:34.505Z,18.20
2022-09-12T08:51:40.964Z,18.33
2022-09-12T08:53:48.104Z,18.42
2022-09-12T08:55:54.660Z,18.53
2022-09-12T08:58:00.090Z,18.63
2022-09-12T09:00:07.938Z,18.72
2022-09-12T09:02:34.438Z,18.83
2022-09-12T09:04:50.745Z,18.84
2022-09-12T09:07:15.449Z,18.89
2022-09-12T09:09:31.557Z,18.93
2022-09-12T09:11:48.162Z,19.05
2022-09-12T09:14:21.997Z,19.09
2022-09-12T09:16:32.919Z,19.06
2022-09-12T09:18:38.151Z,19.12
2022-09-12T09:20:46.729Z,19.15
2022-09-12T09:22:56.814Z,19.31
2022-09-12T09:25:06.192Z,19.45
2022-09-12T09:27:39.171Z,19.57
2022-09-12T09:29:45.594Z,19.60
2022-09-12T09:31:53.118Z,19.52
2022-09-12T09:33:56.693Z,19.64
2022-09-12T09:36:12.395Z,19.81
2022-09-12T09:38:25.440Z,20.00
2022-09-12T09:40:39.684Z,20.06
2022-09-12T09:42:48.794Z,19.99
2022-09-12T09:44:55.598Z,20.02
2022-09-12T09:47:01.222Z,20.23
2022-09-12T09:49:07.040Z,20.28
2022-09-12T09:51:10.708Z,20.50
2022-09-12T09:53:35.023Z,20.63
2022-09-12T09:55:43.407Z,20.85
2022-09-12T09:57:51.241Z,20.98
2022-09-12T09:59:54.982Z,21.15
2022-09-12T10:02:03.477Z,21.24
2022-09-12T10:04:07.248Z,21.40
2022-09-12T10:06:26.070Z,21.47
2022-09-12T10:08:33.109Z,21.36
2022-09-12T10:10:36.541Z,21.25
2022-09-12T10:12:40.042Z,21.41
2022-09-12T10:16:53.396Z,21.55
2022-09-12T10:18:59.121Z,21.58
2022-09-12T10:21:03.615Z,21.83
2022-09-12T10:23:30.222Z,22.05
2022-09-12T10:25:35.963Z,22.19
2022-09-12T10:27:39.852Z,22.22
2022-09-12T10:29:47.805Z,22.01
2022-09-12T10:31:54.070Z,22.32
2022-09-12T10:34:01.044Z,22.45
2022-09-12T10:36:05.145Z,22.34
2022-09-12T10:38:17.996Z,22.37
2022-09-12T10:40:26.423Z,22.53
2022-09-12T10:42:52.669Z,22.68
2022-09-12T10:44:56.268Z,22.64
2022-09-12T10:47:30.410Z,22.76
2022-09-12T10:50:22.093Z,22.97
2022-09-12T10:57:21.119Z,23.34
2022-09-12T10:59:40.197Z,23.56
2022-09-12T11:01:47.208Z,23.62
2022-09-12T11:04:08.300Z,23.60
2022-09-12T11:06:17.599Z,23.80
2022-09-12T11:08:52.121Z,23.63
2022-09-12T11:11:01.107Z,23.98
2022-09-12T11:13:22.332Z,24.05
2022-09-12T11:15:52.157Z,23.90
2022-09-12T11:18:01.751Z,23.65
2022-09-12T11:20:22.671Z,23.86
2022-09-12T11:22:41.543Z,24.09
2022-09-12T11:25:19.282Z,24.16
2022-09-12T11:27:42.163Z,24.42
2022-09-12T11:29:50.187Z,24.59
2022-09-12T11:32:12.945Z,24.57
2022-09-12T11:34:25.279Z,24.62
2022-09-12T11:36:34.855Z,24.61
2022-09-12T11:38:58.811Z,24.62
2022-09-12T11:41:06.464Z,24.31
2022-09-12T11:43:54.958Z,24.43
2022-09-12T12:01:31.369Z,25.30
2022-09-12T12:04:00.145Z,25.23
2022-09-12T12:06:15.628Z,25.23
2022-09-12T12:08:19.596Z,25.45
2022-09-12T12:10:27.405Z,25.58
2022-09-12T12:12:31.305Z,25.64
2022-09-12T12:14:42.474Z,25.63
2022-09-12T12:16:47.068Z,25.72
2022-09-12T12:18:56.308Z,25.59
2022-09-12T12:21:31.344Z,25.35
2022-09-12T12:23:36.534Z,25.44
2022-09-12T12:25:42.959Z,25.65
2022-09-12T12:27:51.845Z,25.91
2022-09-12T12:29:55.756Z,25.72
2022-09-12T12:32:25.039Z,25.73
2022-09-12T12:34:30.925Z,26.07
2022-09-12T12:36:41.428Z,26.06
2022-09-12T12:38:46.076Z,26.40
2022-09-12T12:40:50.431Z,26.52
2022-09-12T12:43:06.153Z,26.40
2022-09-12T12:45:42.690Z,25.99
2022-09-12T12:47:48.821Z,26.20
2022-09-12T12:49:54.472Z,26.47
2022-09-12T12:52:02.399Z,26.36
2022-09-12T12:54:35.308Z,26.39
2022-09-12T12:56:43.421Z,26.52
2022-09-12T12:58:49.739Z,26.49
2022-09-12T13:01:07.031Z,26.69
2022-09-12T13:05:18.231Z,27.10
2022-09-12T13:25:53.973Z,27.40
2022-09-12T13:28:06.187Z,27.40
2022-09-12T13:34:00.931Z,27.48
2022-09-12T14:34:20.463Z,27.88
2022-09-12T14:36:27.310Z,28.13
2022-09-12T14:38:36.537Z,28.28
2022-09-12T14:40:43.516Z,28.47
2022-09-12T14:42:50.004Z,28.34
2022-09-12T14:44:58.035Z,28.29
2022-09-12T14:47:13.766Z,27.81
2022-09-12T14:49:21.597Z,27.97
2022-09-12T14:51:28.664Z,28.10
2022-09-12T14:53:33.819Z,28.35
2022-09-12T14:55:45.470Z,28.04
2022-09-12T14:57:50.482Z,28.18
2022-09-12T14:59:54.673Z,28.09
2022-09-12T15:02:23.756Z,28.10
2022-09-12T15:04:40.472Z,28.33
2022-09-12T15:06:43.999Z,28.02
2022-09-12T15:08:47.617Z,28.17
2022-09-12T15:10:50.963Z,27.93
2022-09-12T15:13:14.014Z,27.85
2022-09-12T15:15:19.676Z,27.93
2022-09-12T15:17:22.932Z,28.35
2022-09-12T15:19:27.957Z,28.44
2022-09-12T15:21:32.836Z,28.31
2022-09-12T15:23:40.178Z,28.23
2022-09-12T15:25:50.420Z,28.27
2022-09-12T15:27:56.005Z,28.11
2022-09-12T15:30:03.689Z,27.97
2022-09-12T15:40:34.366Z,27.59
2022-09-12T15:42:38.730Z,27.55
2022-09-12T15:44:42.482Z,27.16
2022-09-12T15:46:46.116Z,27.08
2022-09-12T15:49:42.783Z,27.18
2022-09-12T15:51:55.277Z,27.37
2022-09-12T15:53:58.823Z,27.46
2022-09-12T16:03:39.136Z,27.13
2022-09-12T16:05:42.854Z,27.10
2022-09-12T16:07:46.414Z,26.87
2022-09-12T16:09:50.045Z,26.87
2022-09-12T16:11:54.796Z,26.92
2022-09-12T16:13:58.328Z,26.83
2022-09-12T16:16:01.982Z,26.86
2022-09-12T16:18:05.487Z,26.77
2022-09-12T16:20:10.114Z,26.74
2022-09-12T16:22:13.476Z,26.68
2022-09-12T16:24:16.938Z,26.55
2022-09-12T17:20:29.052Z,25.19
2022-09-12T17:22:56.964Z,25.18
2022-09-12T17:36:27.375Z,24.85
2022-09-12T17:38:34.654Z,24.65
2022-09-12T17:40:58.631Z,24.66
2022-09-12T17:43:01.916Z,24.56
2022-09-12T17:45:06.375Z,24.59
2022-09-12T17:47:09.662Z,24.58
2022-09-12T17:49:15.103Z,24.31
2022-09-12T17:51:18.585Z,24.55
2022-09-12T17:53:21.995Z,24.43
2022-09-12T17:55:27.474Z,24.44
2022-09-12T17:57:30.727Z,24.43
2022-09-12T17:59:34.108Z,24.35
2022-09-12T18:01:55.271Z,24.18
2022-09-12T18:04:00.538Z,24.18
2022-09-12T18:06:03.919Z,24.16
2022-09-12T18:08:07.257Z,24.21
2022-09-12T18:10:11.937Z,23.74
2022-09-12T18:12:20.017Z,23.99
2022-09-12T18:14:24.007Z,23.46
2022-09-12T18:16:28.185Z,23.96
2022-09-12T18:18:31.882Z,23.99
2022-09-12T18:20:35.285Z,23.94
2022-09-12T18:22:38.624Z,23.80
2022-09-12T18:24:42.028Z,23.79
2022-09-12T18:26:45.377Z,23.68
2022-09-12T18:28:50.063Z,23.63
2022-09-12T18:30:53.814Z,23.64
2022-09-12T18:32:57.121Z,23.62
2022-09-12T18:35:00.953Z,23.48
2022-09-12T18:37:05.269Z,23.38
2022-09-12T18:39:08.702Z,23.41
2022-09-12T18:41:14.604Z,23.37
2022-09-12T18:43:17.991Z,23.32
2022-09-12T18:45:22.649Z,23.15
2022-09-12T18:47:26.425Z,23.14
2022-09-12T18:49:29.956Z,23.15
2022-09-12T18:51:36.212Z,23.09
2022-09-12T18:53:39.956Z,23.06
2022-09-12T18:55:43.275Z,23.04
2022-09-12T18:57:46.799Z,22.98
2022-09-12T18:59:50.162Z,22.94
2022-09-12T19:01:54.894Z,22.82
2022-09-12T19:03:58.984Z,22.85
2022-09-12T19:06:02.300Z,22.82
2022-09-12T19:08:05.570Z,22.79
2022-09-12T19:10:09.972Z,22.75
2022-09-12T19:12:13.379Z,22.73
2022-09-12T19:14:17.652Z,22.55
2022-09-12T19:16:23.325Z,22.57
2022-09-12T19:18:28.326Z,22.46
2022-09-12T19:20:31.926Z,22.42
2022-09-12T19:22:35.350Z,22.44
2022-09-12T19:24:39.708Z,22.30
2022-09-12T19:26:43.136Z,22.22
2022-09-12T19:28:47.029Z,22.20
2022-09-12T19:30:50.494Z,22.09
2022-09-12T19:32:53.884Z,22.06
2022-09-12T19:34:58.608Z,22.09
2022-09-12T19:37:01.937Z,22.04
2022-09-12T19:39:05.702Z,22.01
2022-09-12T19:41:14.675Z,22.05
2022-09-12T19:43:18.624Z,22.22
2022-09-12T19:45:21.983Z,22.23
2022-09-12T19:47:26.137Z,22.30
2022-09-12T19:49:29.416Z,22.41
2022-09-12T19:51:34.304Z,22.51
2022-09-12T19:53:38.272Z,22.53
2022-09-12T19:55:41.625Z,22.51
2022-09-12T19:57:45.065Z,22.49
2022-09-12T19:59:48.707Z,22.42
2022-09-12T20:01:52.806Z,22.15
2022-09-12T20:03:57.161Z,22.01
2022-09-12T20:06:03.610Z,21.97
2022-09-12T20:08:08.469Z,21.92
2022-09-12T20:10:12.028Z,21.77
2022-09-12T20:12:15.756Z,21.73
2022-09-12T20:14:19.244Z,21.84
2022-09-12T20:16:25.573Z,21.85
2022-09-12T20:18:31.161Z,21.76
2022-09-12T20:20:34.489Z,21.69
2022-09-12T20:22:40.132Z,21.75
2022-09-12T20:24:45.057Z,21.82
2022-09-12T20:26:48.473Z,21.89
2022-09-12T20:28:52.089Z,21.94
2022-09-12T20:30:55.423Z,21.88
2022-09-12T20:32:59.915Z,21.91
2022-09-12T20:35:03.385Z,21.85
2022-09-12T20:37:06.867Z,21.89
2022-09-12T20:39:14.403Z,22.00
2022-09-12T20:41:20.936Z,22.11
2022-09-12T20:43:24.290Z,22.24
2022-09-12T20:45:27.615Z,22.26
2022-09-12T20:47:31.379Z,22.33
2022-09-12T20:49:34.648Z,22.41
2022-09-12T20:51:38.490Z,22.37
2022-09-12T20:53:41.823Z,22.41
2022-09-12T20:55:50.951Z,22.26
2022-09-12T20:57:55.595Z,22.20
2022-09-12T20:59:58.934Z,22.04
2022-09-12T21:02:02.426Z,22.04
2022-09-12T21:04:05.960Z,22.06
2022-09-12T21:06:10.720Z,22.05
2022-09-12T21:08:14.467Z,22.12
2022-09-12T21:10:19.196Z,22.18
2022-09-12T21:12:22.842Z,22.11
2022-09-12T21:14:27.530Z,22.23
2022-09-12T21:16:30.906Z,22.24
2022-09-12T21:18:35.777Z,22.03
2022-09-12T21:20:39.097Z,21.88
2022-09-12T21:22:42.573Z,21.81
2022-09-12T21:24:45.884Z,21.79
2022-09-12T21:26:49.353Z,21.72
2022-09-12T21:28:52.648Z,21.62
2022-09-12T21:30:57.669Z,21.54
2022-09-12T21:33:01.227Z,21.54
2022-09-12T21:35:05.734Z,21.47
2022-09-12T21:37:09.133Z,21.36
2022-09-12T21:39:12.390Z,21.40
2022-09-12T21:41:18.337Z,21.43
2022-09-12T21:43:21.734Z,21.29
2022-09-12T21:45:25.144Z,21.22
2022-09-12T21:47:29.959Z,21.18
2022-09-12T21:49:36.131Z,21.04
2022-09-12T21:51:39.500Z,21.03
2022-09-12T21:53:42.970Z,21.08
2022-09-12T21:55:46.289Z,20.95
2022-09-12T21:57:49.716Z,20.92
2022-09-12T21:59:53.049Z,20.86
2022-09-12T22:01:56.360Z,20.75
2022-09-12T22:04:04.515Z,20.79
2022-09-12T22:06:07.995Z,20.89
2022-09-12T22:08:12.283Z,20.83
2022-09-12T22:10:16.214Z,20.67
2022-09-12T22:12:20.310Z,20.62
2022-09-12T22:14:23.654Z,20.53
2022-09-12T22:16:27.056Z,20.42
2022-09-12T22:18:30.359Z,20.46
2022-09-12T22:20:34.954Z,20.50
2022-09-12T22:22:55.984Z,20.54
2022-09-12T22:24:59.256Z,20.53
2022-09-12T22:27:04.762Z,20.53
2022-09-12T22:29:09.985Z,20.62
2022-09-12T22:31:14.296Z,20.79
2022-09-12T22:33:17.780Z,20.86
2022-09-12T22:35:21.378Z,20.89
2022-09-12T22:37:26.448Z,20.92
2022-09-12T22:39:29.856Z,20.93
2022-09-12T22:41:33.168Z,20.96
2022-09-12T22:43:36.989Z,20.96
2022-09-12T22:45:41.900Z,21.00
2022-09-12T22:47:46.305Z,21.01
2022-09-12T22:49:49.752Z,21.00
2022-09-12T22:51:53.129Z,21.01
2022-09-12T22:53:57.737Z,21.01
2022-09-12T22:56:01.181Z,20.98
2022-09-12T22:58:04.603Z,20.91
2022-09-12T23:00:10.439Z,20.65
2022-09-12T23:02:13.799Z,20.53
2022-09-12T23:04:17.071Z,20.57
2022-09-12T23:06:21.029Z,20.58
2022-09-12T23:08:27.315Z,20.62
2022-09-12T23:10:32.403Z,20.65
2022-09-12T23:12:35.697Z,20.59
2022-09-12T23:14:38.990Z,20.60
2022-09-12T23:16:42.212Z,20.66
2022-09-12T23:18:45.936Z,20.68
2022-09-12T23:20:57.590Z,20.52
2022-09-12T23:23:02.204Z,20.31
2022-09-12T23:25:06.477Z,20.25
2022-09-12T23:27:11.235Z,20.30
2022-09-12T23:29:14.585Z,20.33
2022-09-12T23:31:18.298Z,20.38
2022-09-12T23:33:22.103Z,20.24
2022-09-12T23:35:25.378Z,20.07
2022-09-12T23:37:28.629Z,20.04
2022-09-12T23:39:32.302Z,20.11
2022-09-12T23:41:35.567Z,20.18
2022-09-12T23:43:40.395Z,20.18
2022-09-12T23:45:43.739Z,20.07
2022-09-12T23:47:47.120Z,19.87
2022-09-12T23:49:50.438Z,19.87
2022-09-12T23:51:53.794Z,19.92
2022-09-12T23:53:57.098Z,19.99
2022-09-12T23:56:00.517Z,20.01
2022-09-12T23:58:03.820Z,20.03
